Time;durP1;ratioP1;P1;durP2;ratioP2;P2;SDS_P1;SDS_P2;PMS_P1;PMS_P2;Temp;Humidity;BMP_temperature;BMP_pressure;BME280_temperature;BME280_humidity;BME280_pressure;Samples;Min_cycle;Max_cycle;Signal;HPM_P1;HPM_P2
2022/10/22 00:02:21;;;;;;;4.35;0.70;;;13.40;89.40;;;;;;5051980;28;20022;-78
2022/10/22 00:04:48;;;;;;;4.68;0.80;;;13.30;89.60;;;;;;5052055;28;20029;-79
2022/10/22 00:07:18;;;;;;;4.93;0.90;;;13.30;89.50;;;;;;5056236;28;20021;-79
2022/10/22 00:09:44;;;;;;;1.15;0.50;;;13.30;89.20;;;;;;5056177;28;20061;-78
2022/10/22 00:12:11;;;;;;;1.73;0.60;;;13.20;89.20;;;;;;5037973;28;20045;-79
2022/10/22 00:14:37;;;;;;;4.75;1.10;;;13.20;89.70;;;;;;5056098;28;20384;-78
2022/10/22 00:17:03;;;;;;;3.90;1.00;;;13.30;90.00;;;;;;5055920;28;20027;-79
2022/10/22 00:19:28;;;;;;;4.57;0.77;;;13.20;89.90;;;;;;5056092;28;20070;-79
2022/10/22 00:21:54;;;;;;;1.77;0.63;;;13.30;90.10;;;;;;5056029;28;20029;-78
2022/10/22 00:24:20;;;;;;;2.55;0.60;;;13.30;90.10;;;;;;5056041;28;20017;-79
2022/10/22 00:26:45;;;;;;;0.68;0.50;;;13.30;90.20;;;;;;5055748;28;20025;-78
2022/10/22 00:29:11;;;;;;;4.22;0.73;;;13.30;90.20;;;;;;5055836;28;20049;-78
2022/10/22 00:31:36;;;;;;;2.13;0.70;;;13.30;89.90;;;;;;5055666;28;20427;-78
2022/10/22 00:34:02;;;;;;;0.93;0.40;;;13.30;89.80;;;;;;5055733;28;20045;-78
2022/10/22 00:36:28;;;;;;;1.70;0.57;;;13.30;89.60;;;;;;5055709;28;20025;-78
2022/10/22 00:38:53;;;;;;;4.30;0.52;;;13.30;89.60;;;;;;5037648;28;20083;-78
2022/10/22 00:41:19;;;;;;;1.33;0.57;;;13.30;89.40;;;;;;5055530;28;20028;-78
2022/10/22 00:43:55;;;;;;;2.70;0.60;;;13.20;88.90;;;;;;5055626;28;20107;-77
2022/10/22 00:46:21;;;;;;;1.08;0.30;;;13.20;89.20;;;;;;5037737;28;20060;-78
2022/10/22 00:48:46;;;;;;;3.10;0.47;;;13.00;89.70;;;;;;5055231;28;20060;-78
2022/10/22 00:51:13;;;;;;;3.88;0.50;;;13.10;90.10;;;;;;5055484;28;20055;-78
2022/10/22 00:53:44;;;;;;;2.55;0.40;;;13.10;90.20;;;;;;5055318;28;20049;-78
2022/10/22 00:56:10;;;;;;;3.05;0.55;;;13.10;90.20;;;;;;5037264;28;20025;-79
2022/10/22 00:58:42;;;;;;;1.73;0.52;;;13.10;90.20;;;;;;5055154;28;20492;-79
2022/10/22 01:01:12;;;;;;;3.13;0.63;;;13.10;89.60;;;;;;5055325;28;20377;-79
2022/10/22 01:03:38;;;;;;;1.70;0.45;;;13.10;89.70;;;;;;5055082;28;20029;-78
2022/10/22 01:06:04;;;;;;;3.90;0.50;;;13.10;89.90;;;;;;5054790;28;20075;-79
2022/10/22 01:08:45;;;;;;;3.40;0.60;;;13.10;89.90;;;;;;5054794;28;20524;-79
2022/10/22 01:11:37;;;;;;;5.97;0.60;;;13.00;89.70;;;;;;5054694;28;20473;-79
2022/10/22 01:14:30;;;;;;;6.95;0.95;;;12.90;89.90;;;;;;5054874;28;20063;-79
2022/10/22 01:17:13;;;;;;;0.85;0.45;;;13.00;90.00;;;;;;5053348;28;20029;-79
2022/10/22 01:19:53;;;;;;;2.42;0.60;;;13.00;90.40;;;;;;5054663;28;20029;-79
2022/10/22 01:22:37;;;;;;;1.98;0.73;;;13.10;90.50;;;;;;5054948;28;20445;-79
2022/10/22 01:25:21;;;;;;;4.15;0.57;;;13.10;90.50;;;;;;5036586;28;20381;-80
2022/10/22 01:28:28;;;;;;;0.60;0.30;;;13.10;90.40;;;;;;5054547;28;20025;-78
2022/10/22 01:30:56;;;;;;;0.77;0.40;;;13.10;90.40;;;;;;4993431;28;20082;-77
2022/10/22 01:33:25;;;;;;;2.15;0.40;;;13.10;90.30;;;;;;5054331;28;20042;-77
2022/10/22 01:35:52;;;;;;;3.85;0.68;;;13.20;90.20;;;;;;5054276;28;20037;-78
2022/10/22 01:38:21;;;;;;;1.00;0.43;;;13.20;90.10;;;;;;5054406;28;20021;-77
2022/10/22 01:40:49;;;;;;;2.63;0.45;;;13.20;89.80;;;;;;5036361;28;20493;-77
2022/10/22 01:43:15;;;;;;;1.85;0.40;;;13.10;89.80;;;;;;5054392;28;20025;-77
2022/10/22 01:45:45;;;;;;;1.33;0.40;;;13.10;90.10;;;;;;5054038;28;20021;-77
2022/10/22 01:48:21;;;;;;;0.90;0.40;;;13.10;90.30;;;;;;5054126;28;20083;-77
2022/10/22 01:51:13;;;;;;;7.32;1.77;;;13.00;90.30;;;;;;5054032;28;20048;-78
2022/10/22 01:53:57;;;;;;;4.82;0.95;;;12.90;90.40;;;;;;5054153;28;20048;-78
2022/10/22 01:56:36;;;;;;;1.92;1.00;;;12.90;90.60;;;;;;5053893;28;20166;-78
2022/10/22 01:59:11;;;;;;;2.88;1.25;;;12.90;90.70;;;;;;5035975;28;20025;-78
2022/10/22 02:01:54;;;;;;;9.27;3.17;;;12.90;90.80;;;;;;5053738;28;20044;-78
2022/10/22 02:04:24;;;;;;;7.95;3.80;;;12.90;90.80;;;;;;5053920;28;20454;-78
2022/10/22 02:06:53;;;;;;;5.75;3.03;;;12.90;90.90;;;;;;5053737;28;20029;-78
2022/10/22 02:09:21;;;;;;;7.88;2.83;;;12.90;90.70;;;;;;5053405;28;20040;-78
2022/10/22 02:11:49;;;;;;;10.27;2.75;;;12.90;90.60;;;;;;5053510;28;20092;-79
2022/10/22 02:14:16;;;;;;;12.27;4.60;;;12.90;90.40;;;;;;5035705;28;20120;-79
2022/10/22 02:16:46;;;;;;;16.42;5.47;;;12.90;90.40;;;;;;5053717;28;20032;-79
2022/10/22 02:19:34;;;;;;;18.08;5.90;;;12.90;90.20;;;;;;5035526;28;20455;-80
2022/10/22 02:22:00;;;;;;;13.30;4.40;;;12.90;90.20;;;;;;5053444;28;20035;-79
2022/10/22 02:24:26;;;;;;;15.25;4.68;;;12.80;90.20;;;;;;5053463;28;20029;-79
2022/10/22 02:26:57;;;;;;;12.68;4.72;;;12.80;90.30;;;;;;5053378;28;20500;-79
2022/10/22 02:29:42;;;;;;;12.23;4.90;;;12.90;90.50;;;;;;5052992;28;20029;-79
2022/10/22 02:32:10;;;;;;;14.90;5.10;;;12.90;90.60;;;;;;5053401;28;20071;-79
2022/10/22 02:34:36;;;;;;;12.95;4.82;;;13.00;90.70;;;;;;5053299;28;20079;-79
2022/10/22 02:37:03;;;;;;;12.07;4.63;;;13.00;90.50;;;;;;5053179;28;20025;-79
2022/10/22 02:39:30;;;;;;;6.63;2.40;;;13.00;90.10;;;;;;5053176;28;20086;-80
2022/10/22 02:41:56;;;;;;;3.67;1.45;;;13.00;90.10;;;;;;5053178;28;20024;-79
2022/10/22 02:44:22;;;;;;;5.00;1.20;;;12.90;90.10;;;;;;5053233;28;20381;-79
2022/10/22 02:46:49;;;;;;;3.42;1.10;;;12.80;90.50;;;;;;5052873;28;20025;-79
2022/10/22 02:49:14;;;;;;;3.30;0.77;;;12.80;90.80;;;;;;5053121;28;20032;-79
2022/10/22 02:51:40;;;;;;;2.15;0.90;;;12.80;90.90;;;;;;5053055;28;20358;-79
2022/10/22 02:54:06;;;;;;;3.03;0.93;;;12.90;91.10;;;;;;5052770;28;20033;-79
2022/10/22 02:56:31;;;;;;;6.53;2.97;;;12.90;91.00;;;;;;5052944;28;20113;-80
2022/10/22 02:58:57;;;;;;;5.80;2.97;;;12.90;91.00;;;;;;5052848;28;20029;-80
2022/10/22 03:01:23;;;;;;;7.07;2.60;;;12.90;90.90;;;;;;5034887;28;20020;-80
2022/10/22 03:03:48;;;;;;;5.85;1.90;;;12.90;91.10;;;;;;5052694;28;20025;-80
2022/10/22 03:06:14;;;;;;;3.33;1.60;;;12.90;91.30;;;;;;5052668;28;20418;-80
2022/10/22 03:08:40;;;;;;;4.60;1.73;;;12.90;91.40;;;;;;5052703;28;20027;-81
2022/10/22 03:11:06;;;;;;;3.38;1.20;;;13.00;91.40;;;;;;5052840;28;20366;-80
2022/10/22 03:13:31;;;;;;;1.70;0.75;;;13.00;91.30;;;;;;5052679;28;20020;-80
2022/10/22 03:15:57;;;;;;;1.60;0.40;;;13.00;91.20;;;;;;5052672;28;20037;-79
2022/10/22 03:18:22;;;;;;;3.10;0.50;;;12.90;91.10;;;;;;5052796;28;20067;-79
2022/10/22 03:20:48;;;;;;;0.70;0.20;;;13.00;90.60;;;;;;5052669;28;20477;-79
2022/10/22 03:23:18;;;;;;;0.20;0.20;;;12.90;90.70;;;;;;5052879;28;20025;-79
2022/10/22 03:25:46;;;;;;;1.52;0.32;;;12.90;91.50;;;;;;5034836;28;20082;-79
2022/10/22 03:28:15;;;;;;;0.85;0.32;;;12.90;90.40;;;;;;5052766;28;20022;-80
2022/10/22 03:30:41;;;;;;;0.30;0.22;;;12.90;90.00;;;;;;5052592;28;20025;-80
2022/10/22 03:33:06;;;;;;;0.88;0.52;;;12.90;89.80;;;;;;5052828;28;20483;-80
2022/10/22 03:35:36;;;;;;;1.40;0.30;;;12.80;89.80;;;;;;5052617;28;20041;-79
2022/10/22 03:38:02;;;;;;;1.05;0.40;;;12.80;90.10;;;;;;5052750;28;20102;-80
2022/10/22 03:40:28;;;;;;;0.98;0.40;;;12.80;90.20;;;;;;5054111;28;20053;-80
2022/10/22 03:42:53;;;;;;;1.55;0.55;;;12.80;90.10;;;;;;5056666;28;20056;-80
2022/10/22 03:45:19;;;;;;;2.22;0.30;;;12.80;90.20;;;;;;5056471;28;20503;-80
2022/10/22 03:47:44;;;;;;;2.30;0.20;;;12.70;90.40;;;;;;5056323;28;20418;-80
2022/10/22 03:50:10;;;;;;;2.67;0.30;;;12.70;90.10;;;;;;5056499;28;20029;-80
2022/10/22 03:52:38;;;;;;;0.35;0.20;;;12.60;90.20;;;;;;5056537;28;20025;-80
2022/10/22 03:55:05;;;;;;;1.35;0.40;;;12.60;90.40;;;;;;5038475;28;20126;-80
2022/10/22 03:57:31;;;;;;;2.55;0.30;;;12.60;90.30;;;;;;5056237;28;20025;-80
2022/10/22 03:59:56;;;;;;;1.65;0.10;;;12.60;90.60;;;;;;5056432;28;20392;-80
2022/10/22 04:02:22;;;;;;;0.20;0.20;;;12.60;90.70;;;;;;5056303;28;20025;-80
2022/10/22 04:04:47;;;;;;;0.52;0.20;;;12.70;90.60;;;;;;5038235;28;20025;-80
2022/10/22 04:07:13;;;;;;;1.65;0.20;;;12.70;90.40;;;;;;5056051;28;20091;-80
2022/10/22 04:09:38;;;;;;;1.08;0.30;;;12.70;90.20;;;;;;5055984;28;20052;-80
2022/10/22 04:12:06;;;;;;;0.10;0.10;;;12.80;90.10;;;;;;5056199;28;20422;-80
2022/10/22 04:14:32;;;;;;;3.28;0.20;;;12.80;88.70;;;;;;5038191;28;20033;-80
2022/10/22 04:16:58;;;;;;;3.75;0.13;;;12.80;88.30;;;;;;5055995;28;20078;-80
2022/10/22 04:19:23;;;;;;;0.52;0.30;;;12.70;87.70;;;;;;5056041;28;20056;-80
2022/10/22 04:21:49;;;;;;;0.98;0.40;;;12.70;87.90;;;;;;5056082;28;20115;-80
2022/10/22 04:24:14;;;;;;;0.57;0.20;;;12.70;87.20;;;;;;5037932;28;20439;-80
2022/10/22 04:26:40;;;;;;;1.75;0.30;;;12.70;87.50;;;;;;5055935;28;20374;-80
2022/10/22 04:29:08;;;;;;;0.17;0.17;;;12.70;87.80;;;;;;5055962;28;20493;-80
2022/10/22 04:31:33;;;;;;;6.40;0.47;;;12.70;88.00;;;;;;5055930;28;20028;-80
2022/10/22 04:34:00;;;;;;;1.05;0.40;;;12.70;87.80;;;;;;5055554;28;20033;-80
2022/10/22 04:36:26;;;;;;;1.85;0.60;;;12.60;87.60;;;;;;5055781;28;20025;-80
2022/10/22 04:38:59;;;;;;;1.33;0.50;;;12.60;87.90;;;;;;5055649;28;20017;-80
2022/10/22 04:41:28;;;;;;;1.45;0.50;;;12.60;87.90;;;;;;5055626;28;20095;-80
2022/10/22 04:43:55;;;;;;;1.13;0.35;;;12.60;87.70;;;;;;5055498;28;20044;-80
2022/10/22 04:46:21;;;;;;;1.88;0.90;;;12.60;87.80;;;;;;5037615;28;20028;-80
2022/10/22 04:48:47;;;;;;;3.15;1.98;;;12.70;87.60;;;;;;5037679;28;20024;-79
2022/10/22 04:51:16;;;;;;;2.55;1.85;;;12.70;87.70;;;;;;5055068;28;20100;-79
2022/10/22 04:53:43;;;;;;;1.55;0.88;;;12.80;87.70;;;;;;5055456;28;20469;-79
2022/10/22 04:56:15;;;;;;;2.50;0.28;;;12.80;87.70;;;;;;5055157;28;20079;-79
2022/10/22 04:58:42;;;;;;;0.68;0.30;;;12.70;87.60;;;;;;5055333;28;20024;-79
2022/10/22 05:01:13;;;;;;;0.88;0.40;;;12.80;87.60;;;;;;5055102;28;20095;-80
2022/10/22 05:03:39;;;;;;;0.68;0.30;;;12.80;88.50;;;;;;5055205;28;20055;-79
2022/10/22 05:06:05;;;;;;;1.45;0.30;;;12.80;87.80;;;;;;5054899;28;20057;-79
2022/10/22 05:08:30;;;;;;;0.88;0.10;;;12.80;87.60;;;;;;5055146;28;20025;-79
2022/10/22 05:10:56;;;;;;;1.38;0.30;;;12.80;87.60;;;;;;5036870;28;20500;-79
2022/10/22 05:13:21;;;;;;;0.80;0.70;;;12.70;87.70;;;;;;5055021;28;20033;-79
2022/10/22 05:15:47;;;;;;;3.80;2.47;;;12.80;87.90;;;;;;5054799;28;20040;-79
2022/10/22 05:18:12;;;;;;;0.32;0.32;;;12.80;87.80;;;;;;5054915;28;20025;-79
2022/10/22 05:20:39;;;;;;;2.60;0.47;;;12.80;87.60;;;;;;5054917;28;20481;-79
2022/10/22 05:23:05;;;;;;;2.47;0.40;;;12.80;87.70;;;;;;5037116;28;20032;-78
2022/10/22 05:25:31;;;;;;;0.20;0.20;;;12.70;88.00;;;;;;5054979;28;20473;-79
2022/10/22 05:27:57;;;;;;;1.40;0.25;;;12.70;88.10;;;;;;5054582;28;20659;-80
2022/10/22 05:30:22;;;;;;;2.08;0.35;;;12.80;88.00;;;;;;5054682;28;20028;-79
2022/10/22 05:32:48;;;;;;;0.88;0.82;;;12.80;87.80;;;;;;5054691;28;20049;-79
2022/10/22 05:35:13;;;;;;;1.65;0.85;;;12.80;87.60;;;;;;5054611;28;20033;-79
2022/10/22 05:37:39;;;;;;;1.55;0.57;;;12.90;87.60;;;;;;5054417;28;20032;-78
2022/10/22 05:40:05;;;;;;;0.93;0.47;;;12.90;87.40;;;;;;5054685;28;20078;-80
2022/10/22 05:42:31;;;;;;;0.85;0.45;;;12.80;87.40;;;;;;5036688;28;20385;-79
2022/10/22 05:44:57;;;;;;;0.38;0.30;;;12.80;87.60;;;;;;5054355;28;20040;-79
2022/10/22 05:47:22;;;;;;;1.00;0.60;;;12.80;87.90;;;;;;5054082;28;20025;-79
2022/10/22 05:49:48;;;;;;;1.10;0.80;;;12.80;88.00;;;;;;5054112;28;20071;-79
2022/10/22 05:52:14;;;;;;;1.15;0.85;;;12.80;88.00;;;;;;5054314;28;20048;-79
2022/10/22 05:54:39;;;;;;;2.25;1.08;;;12.90;88.20;;;;;;5053911;28;20036;-79
2022/10/22 05:57:05;;;;;;;1.67;0.98;;;12.90;87.80;;;;;;5054086;28;20029;-78
2022/10/22 05:59:30;;;;;;;3.28;1.33;;;13.00;87.70;;;;;;5065361;28;20442;-78
2022/10/22 06:01:56;;;;;;;2.92;1.33;;;13.10;87.50;;;;;;5055847;28;20106;-78
2022/10/22 06:04:22;;;;;;;2.55;1.27;;;13.10;87.20;;;;;;5073132;28;20040;-78
2022/10/22 06:06:52;;;;;;;1.90;1.15;;;13.10;87.20;;;;;;5073489;28;20028;-79
2022/10/22 06:09:30;;;;;;;2.40;0.90;;;13.10;87.20;;;;;;5073818;28;20039;-80
2022/10/22 06:11:57;;;;;;;0.98;0.90;;;13.10;87.30;;;;;;5073728;28;20076;-79
2022/10/22 06:14:23;;;;;;;1.35;0.93;;;13.10;87.10;;;;;;5073056;28;20036;-80
2022/10/22 06:16:50;;;;;;;2.53;1.00;;;13.10;87.40;;;;;;5073515;28;20032;-79
2022/10/22 06:19:18;;;;;;;1.48;1.20;;;13.10;87.50;;;;;;5073195;28;20024;-77
2022/10/22 06:21:44;;;;;;;1.27;0.90;;;13.10;87.80;;;;;;5073189;28;20028;-77
2022/10/22 06:24:11;;;;;;;2.28;1.00;;;13.10;87.70;;;;;;5073270;28;20033;-78
2022/10/22 06:26:36;;;;;;;1.73;0.85;;;13.20;87.70;;;;;;5073043;28;20032;-78
2022/10/22 06:29:02;;;;;;;3.22;1.10;;;13.20;87.70;;;;;;5073493;28;20028;-77
2022/10/22 06:31:35;;;;;;;1.80;1.33;;;13.20;87.80;;;;;;5073527;28;20031;-78
2022/10/22 06:34:01;;;;;;;2.90;1.10;;;13.30;88.40;;;;;;5073366;28;20021;-75
2022/10/22 06:36:27;;;;;;;2.72;1.00;;;13.40;87.80;;;;;;5073135;28;20508;-78
2022/10/22 06:38:53;;;;;;;1.98;0.88;;;13.50;87.90;;;;;;5055401;28;20079;-78
2022/10/22 06:41:19;;;;;;;1.33;0.95;;;13.60;87.80;;;;;;5073146;28;20029;-78
2022/10/22 06:43:45;;;;;;;2.13;1.10;;;13.70;86.90;;;;;;5073339;28;20024;-77
2022/10/22 06:46:12;;;;;;;2.25;1.05;;;13.80;87.10;;;;;;5073200;28;21101;-79
2022/10/22 06:48:39;;;;;;;2.38;1.40;;;13.80;86.90;;;;;;5072831;28;20040;-76
2022/10/22 06:51:08;;;;;;;3.63;1.27;;;13.90;86.80;;;;;;5073069;28;20016;-77
2022/10/22 06:53:34;;;;;;;4.82;3.25;;;14.10;87.80;;;;;;5073142;28;20023;-78
2022/10/22 06:56:08;;;;;;;3.67;1.10;;;14.40;87.00;;;;;;5054921;28;20063;-77
2022/10/22 06:58:34;;;;;;;10.20;3.08;;;14.50;86.90;;;;;;5072851;28;20025;-75
2022/10/22 07:01:05;;;;;;;7.53;4.03;;;14.80;85.60;;;;;;5072921;28;20049;-77
2022/10/22 07:03:30;;;;;;;6.70;2.55;;;15.00;84.80;;;;;;5072970;28;20024;-81
2022/10/22 07:05:59;;;;;;;4.15;1.52;;;15.00;84.50;;;;;;5073072;28;20028;-81
2022/10/22 07:08:25;;;;;;;1.90;0.95;;;15.10;84.00;;;;;;5054908;28;20079;-80
2022/10/22 07:10:50;;;;;;;2.05;1.08;;;15.20;82.90;;;;;;5054859;28;20422;-81
2022/10/22 07:13:16;;;;;;;1.50;0.85;;;15.20;81.60;;;;;;5072642;28;20049;-81
2022/10/22 07:15:42;;;;;;;3.17;1.40;;;15.20;82.80;;;;;;5072037;28;20035;-82
2022/10/22 07:18:07;;;;;;;2.20;0.90;;;15.10;81.20;;;;;;5072820;28;20032;-82
2022/10/22 07:20:33;;;;;;;2.78;1.27;;;15.20;82.30;;;;;;5072874;28;20036;-80
2022/10/22 07:22:58;;;;;;;2.30;1.00;;;15.20;81.40;;;;;;5073465;28;20029;-80
2022/10/22 07:25:24;;;;;;;2.70;1.77;;;15.20;82.00;;;;;;5073768;28;20701;-81
2022/10/22 07:27:49;;;;;;;2.80;2.00;;;15.20;82.30;;;;;;5072837;28;20028;-82
2022/10/22 07:30:15;;;;;;;2.88;1.52;;;15.30;82.70;;;;;;5072695;28;20485;-81
2022/10/22 07:32:40;;;;;;;2.75;1.05;;;15.30;82.20;;;;;;5072798;28;20094;-81
2022/10/22 07:35:06;;;;;;;2.13;1.02;;;15.40;82.80;;;;;;5072659;28;20384;-81
2022/10/22 07:37:32;;;;;;;1.95;1.33;;;15.50;82.60;;;;;;5072360;28;20427;-81
2022/10/22 07:39:57;;;;;;;2.05;0.82;;;15.60;82.20;;;;;;5072043;28;20071;-80
2022/10/22 07:42:23;;;;;;;3.97;0.80;;;15.60;81.80;;;;;;5072534;28;20024;-79
2022/10/22 07:44:48;;;;;;;1.20;0.73;;;15.50;80.20;;;;;;5072434;28;20090;-80
2022/10/22 07:47:14;;;;;;;2.15;0.70;;;15.50;80.70;;;;;;5072262;28;20099;-79
2022/10/22 07:49:40;;;;;;;1.75;0.65;;;15.50;80.10;;;;;;5072798;28;20032;-79
2022/10/22 07:52:06;;;;;;;3.08;0.98;;;15.50;80.20;;;;;;5072813;28;20098;-82
2022/10/22 07:54:32;;;;;;;2.65;0.80;;;15.60;80.40;;;;;;5073202;28;20029;-81
2022/10/22 07:56:57;;;;;;;2.85;1.05;;;15.60;80.10;;;;;;5073371;28;20021;-83
2022/10/22 07:59:23;;;;;;;3.17;1.20;;;15.60;79.20;;;;;;5072731;28;20154;-85
2022/10/22 08:01:49;;;;;;;1.58;0.80;;;15.70;79.60;;;;;;5072750;28;20024;-81
2022/10/22 08:04:14;;;;;;;8.73;1.65;;;15.70;79.40;;;;;;5072448;28;20107;-80
2022/10/22 08:06:40;;;;;;;6.50;1.65;;;15.70;79.90;;;;;;5075412;28;20025;-79
2022/10/22 08:09:05;;;;;;;2.88;0.98;;;15.80;79.00;;;;;;5057643;28;20428;-77
2022/10/22 08:11:32;;;;;;;2.92;1.02;;;15.80;78.40;;;;;;5072290;28;20040;-78
2022/10/22 08:13:58;;;;;;;3.65;0.85;;;15.90;78.80;;;;;;5072246;28;20074;-78
2022/10/22 08:16:24;;;;;;;1.67;0.77;;;16.00;78.40;;;;;;5072170;28;20028;-79
2022/10/22 08:18:50;;;;;;;4.15;1.13;;;16.00;77.80;;;;;;5088149;28;20039;-78
2022/10/22 08:21:16;;;;;;;2.50;0.88;;;16.10;78.30;;;;;;5074763;28;20035;-79
2022/10/22 08:23:42;;;;;;;2.03;1.05;;;16.20;77.60;;;;;;5054390;28;20021;-78
2022/10/22 08:26:09;;;;;;;2.70;0.98;;;16.40;75.70;;;;;;5072864;28;20016;-79
2022/10/22 08:28:35;;;;;;;1.10;0.70;;;16.40;76.70;;;;;;5075952;28;20039;-78
2022/10/22 08:31:06;;;;;;;2.03;1.00;;;16.60;75.30;;;;;;5075867;28;20020;-79
2022/10/22 08:33:32;;;;;;;4.80;1.30;;;16.70;76.70;;;;;;5075707;28;20492;-78
2022/10/22 08:35:57;;;;;;;4.35;0.70;;;17.00;75.80;;;;;;5075274;28;20028;-78
2022/10/22 08:38:23;;;;;;;8.48;1.20;;;17.10;73.10;;;;;;5075679;28;20099;-79
2022/10/22 08:40:53;;;;;;;4.70;1.10;;;17.10;73.30;;;;;;5057975;28;20468;-78
2022/10/22 08:43:39;;;;;;;2.40;0.68;;;17.10;73.70;;;;;;5057889;28;20534;-80
2022/10/22 08:46:23;;;;;;;3.80;1.02;;;17.20;74.00;;;;;;5075308;28;20546;-78
2022/10/22 08:48:57;;;;;;;2.35;1.00;;;17.40;73.00;;;;;;5075280;28;20021;-78
2022/10/22 08:51:26;;;;;;;1.75;0.68;;;17.60;72.50;;;;;;5056744;28;20388;-77
2022/10/22 08:54:04;;;;;;;2.25;0.65;;;17.70;71.90;;;;;;5074736;28;20062;-76
2022/10/22 08:56:31;;;;;;;2.10;0.80;;;17.70;71.20;;;;;;5075390;28;20373;-78
2022/10/22 08:59:10;;;;;;;2.92;0.85;;;17.80;71.30;;;;;;5075211;28;20036;-78
2022/10/22 09:01:44;;;;;;;3.45;0.90;;;17.80;68.80;;;;;;5074887;28;20013;-77
2022/10/22 09:04:42;;;;;;;4.20;0.90;;;17.80;68.70;;;;;;5074929;28;20482;-77
2022/10/22 09:07:09;;;;;;;2.90;0.68;;;18.00;68.30;;;;;;5074499;28;20044;-79
2022/10/22 09:09:41;;;;;;;2.63;0.90;;;18.20;68.10;;;;;;5074557;28;20109;-77
2022/10/22 09:12:14;;;;;;;3.78;0.70;;;18.10;68.00;;;;;;5074675;28;20393;-75
2022/10/22 09:14:40;;;;;;;2.83;0.90;;;18.20;66.50;;;;;;5074721;28;20117;-75
2022/10/22 09:17:38;;;;;;;4.68;1.25;;;18.30;67.80;;;;;;5069284;28;20480;-78
2022/10/22 09:20:44;;;;;;;2.47;0.65;;;18.40;66.40;;;;;;5035835;28;20039;-76
2022/10/22 09:23:12;;;;;;;4.43;1.08;;;18.50;66.30;;;;;;5024717;28;20072;-76
2022/10/22 09:25:39;;;;;;;2.03;0.60;;;18.70;65.90;;;;;;5074626;28;20484;-76
2022/10/22 09:28:04;;;;;;;5.22;0.77;;;18.90;65.20;;;;;;5074237;28;20036;-77
2022/10/22 09:30:37;;;;;;;3.22;1.13;;;19.10;65.50;;;;;;5074293;28;20032;-77
2022/10/22 09:33:05;;;;;;;1.50;0.80;;;19.10;65.50;;;;;;5074577;28;20039;-77
2022/10/22 09:35:47;;;;;;;4.45;1.10;;;19.20;63.50;;;;;;5074040;28;20119;-76
2022/10/22 09:38:14;;;;;;;1.70;0.70;;;19.10;64.00;;;;;;5073110;28;20017;-77
2022/10/22 09:41:00;;;;;;;5.60;0.65;;;18.90;64.60;;;;;;5055945;28;20025;-77
2022/10/22 09:43:25;;;;;;;7.13;1.27;;;19.00;64.50;;;;;;5074063;28;20028;-76
2022/10/22 09:45:57;;;;;;;2.90;0.80;;;19.10;64.30;;;;;;5073795;28;20029;-78
2022/10/22 09:48:36;;;;;;;2.42;0.80;;;19.30;64.20;;;;;;5073776;28;20021;-78
2022/10/22 09:51:10;;;;;;;5.05;1.88;;;19.30;63.70;;;;;;5074088;28;20030;-78
2022/10/22 09:53:43;;;;;;;3.38;0.70;;;19.30;63.90;;;;;;5074132;28;20029;-79
2022/10/22 09:56:40;;;;;;;2.95;1.15;;;19.20;64.30;;;;;;5073887;28;20040;-79
2022/10/22 09:59:12;;;;;;;2.83;0.93;;;19.00;63.50;;;;;;5054859;28;20028;-78
2022/10/22 10:01:39;;;;;;;4.75;0.70;;;18.70;64.70;;;;;;5073818;28;20024;-78
2022/10/22 10:04:09;;;;;;;2.08;0.85;;;18.60;65.50;;;;;;5073865;28;20021;-77
2022/10/22 10:06:37;;;;;;;3.10;0.80;;;18.70;65.20;;;;;;5073670;28;20051;-78
2022/10/22 10:09:18;;;;;;;5.78;1.40;;;18.80;65.10;;;;;;5073552;28;20029;-78
2022/10/22 10:12:02;;;;;;;2.88;0.93;;;19.20;64.80;;;;;;5073482;28;20464;-78
2022/10/22 10:14:59;;;;;;;4.07;1.25;;;19.30;64.00;;;;;;5073449;28;20108;-78
2022/10/22 10:17:35;;;;;;;4.57;1.10;;;19.70;64.00;;;;;;5073880;28;20024;-78
2022/10/22 10:20:32;;;;;;;1.85;0.75;;;19.80;63.00;;;;;;5073807;28;20020;-78
2022/10/22 10:23:26;;;;;;;1.58;1.00;;;20.10;62.00;;;;;;5073509;28;20020;-78
2022/10/22 10:26:24;;;;;;;5.88;1.52;;;20.40;61.30;;;;;;5073469;28;20028;-78
2022/10/22 10:29:01;;;;;;;4.53;0.70;;;20.50;59.10;;;;;;5055454;28;20376;-78
2022/10/22 10:31:33;;;;;;;3.50;1.08;;;20.20;59.90;;;;;;5073276;28;20377;-78
2022/10/22 10:34:32;;;;;;;2.88;0.85;;;20.30;60.40;;;;;;5073266;28;20075;-78
2022/10/22 10:37:23;;;;;;;4.30;0.77;;;20.60;59.10;;;;;;5073555;28;20060;-78
2022/10/22 10:40:09;;;;;;;3.78;1.50;;;20.80;59.00;;;;;;5073000;28;20020;-78
2022/10/22 10:42:43;;;;;;;4.53;1.10;;;21.00;57.80;;;;;;5073190;28;20020;-78
2022/10/22 10:45:21;;;;;;;4.93;0.90;;;21.10;57.80;;;;;;5072983;28;20112;-78
2022/10/22 10:48:08;;;;;;;4.45;0.77;;;21.40;56.50;;;;;;5054855;28;20107;-78
2022/10/22 10:50:40;;;;;;;4.15;1.10;;;21.30;56.20;;;;;;5072922;28;20021;-78
2022/10/22 10:53:21;;;;;;;7.32;0.90;;;21.20;57.50;;;;;;5071807;28;20029;-77
2022/10/22 10:55:58;;;;;;;4.22;1.08;;;21.40;57.20;;;;;;5072872;28;20032;-77
2022/10/22 10:58:42;;;;;;;3.55;0.82;;;21.50;56.10;;;;;;5072815;28;20021;-77
2022/10/22 11:01:32;;;;;;;2.58;0.82;;;21.30;56.80;;;;;;5072865;28;20016;-77
2022/10/22 11:04:22;;;;;;;4.55;1.33;;;21.40;55.30;;;;;;5072822;28;20468;-77
2022/10/22 11:06:49;;;;;;;2.22;0.98;;;21.20;55.80;;;;;;5072822;28;20069;-77
2022/10/22 11:09:33;;;;;;;9.43;1.10;;;20.90;54.70;;;;;;5072556;28;20024;-77
2022/10/22 11:12:14;;;;;;;12.18;1.30;;;20.30;57.10;;;;;;5072636;28;20090;-77
2022/10/22 11:15:21;;;;;;;3.13;0.98;;;19.90;58.30;;;;;;5072683;28;20497;-77
2022/10/22 11:17:48;;;;;;;3.42;0.85;;;19.70;59.70;;;;;;4971852;28;20031;-77
2022/10/22 11:20:42;;;;;;;2.83;1.20;;;19.50;60.20;;;;;;5052053;28;20078;-77
2022/10/22 11:23:23;;;;;;;3.85;1.30;;;19.20;60.90;;;;;;5072618;28;20016;-77
2022/10/22 11:25:49;;;;;;;6.03;1.15;;;19.10;60.50;;;;;;5072870;28;20034;-77
2022/10/22 11:28:33;;;;;;;2.22;1.00;;;19.00;61.00;;;;;;5072779;28;20045;-77
2022/10/22 11:31:08;;;;;;;6.28;1.23;;;18.90;61.10;;;;;;5072644;28;20024;-77
2022/10/22 11:33:43;;;;;;;3.88;1.90;;;18.70;62.10;;;;;;5072542;28;20044;-77
2022/10/22 11:36:11;;;;;;;4.07;1.30;;;18.80;63.80;;;;;;5072463;28;20068;-77
2022/10/22 11:38:37;;;;;;;3.83;1.00;;;19.40;62.10;;;;;;5072519;28;20025;-77
2022/10/22 11:41:15;;;;;;;7.30;1.60;;;20.10;59.60;;;;;;5071165;28;20039;-77
2022/10/22 11:44:18;;;;;;;6.47;1.30;;;20.60;57.90;;;;;;5072328;28;20441;-77
2022/10/22 11:46:52;;;;;;;5.40;1.63;;;20.90;55.90;;;;;;5072443;28;20020;-77
2022/10/22 11:49:23;;;;;;;4.20;1.00;;;21.40;49.20;;;;;;5072713;28;20020;-77
2022/10/22 11:51:50;;;;;;;4.28;0.95;;;21.60;47.50;;;;;;5072464;28;20111;-77
2022/10/22 11:54:41;;;;;;;2.45;0.60;;;21.70;47.70;;;;;;5072346;28;20017;-77
2022/10/22 11:57:24;;;;;;;3.55;0.88;;;21.80;46.10;;;;;;5072397;28;20399;-77
2022/10/22 11:59:56;;;;;;;4.05;0.98;;;22.20;46.10;;;;;;5054266;28;20111;-77
2022/10/22 12:02:24;;;;;;;2.72;1.00;;;22.60;44.60;;;;;;5075242;28;20496;-77
2022/10/22 12:04:49;;;;;;;4.65;1.10;;;23.00;43.90;;;;;;5076093;28;20025;-77
2022/10/22 12:07:53;;;;;;;5.07;1.15;;;23.40;42.50;;;;;;5076102;28;20552;-77
2022/10/22 12:10:22;;;;;;;1.85;0.68;;;24.00;40.50;;;;;;5060643;28;20116;-77
2022/10/22 12:12:56;;;;;;;4.28;0.70;;;23.90;39.80;;;;;;5074651;28;20051;-77
2022/10/22 12:15:25;;;;;;;1.92;0.77;;;24.00;38.50;;;;;;5075877;28;20037;-77
2022/10/22 12:17:59;;;;;;;5.22;1.25;;;24.10;39.20;;;;;;5075884;28;20017;-77
2022/10/22 12:20:26;;;;;;;5.03;0.95;;;24.30;39.00;;;;;;5075864;28;20031;-77
2022/10/22 12:22:53;;;;;;;4.78;0.93;;;24.40;38.80;;;;;;5075736;28;20350;-77
2022/10/22 12:25:24;;;;;;;4.88;1.10;;;24.80;38.10;;;;;;5075691;28;20039;-77
2022/10/22 12:27:53;;;;;;;5.03;1.02;;;25.00;37.60;;;;;;5075804;28;20044;-78
2022/10/22 12:30:24;;;;;;;2.40;0.68;;;25.50;36.20;;;;;;5075750;28;20465;-78
2022/10/22 12:32:55;;;;;;;3.13;0.82;;;25.00;36.60;;;;;;5074265;28;20388;-78
2022/10/22 12:35:24;;;;;;;2.30;0.70;;;25.30;36.70;;;;;;5057319;28;20036;-78
2022/10/22 12:38:02;;;;;;;4.88;0.90;;;25.10;37.60;;;;;;5075285;28;20020;-77
2022/10/22 12:40:31;;;;;;;3.67;0.80;;;25.80;35.80;;;;;;5075450;28;20317;-77
2022/10/22 12:43:10;;;;;;;5.20;0.93;;;26.30;34.70;;;;;;5075497;28;20074;-77
2022/10/22 12:45:36;;;;;;;3.10;0.90;;;26.30;35.60;;;;;;5075617;28;20025;-77
2022/10/22 12:48:06;;;;;;;5.40;0.82;;;26.50;35.10;;;;;;5057441;28;20469;-77
2022/10/22 12:50:38;;;;;;;2.20;0.90;;;26.70;34.70;;;;;;5075299;28;20052;-77
2022/10/22 12:53:21;;;;;;;4.93;1.10;;;26.80;34.80;;;;;;5075256;28;20027;-77
2022/10/22 12:55:49;;;;;;;4.85;1.30;;;26.40;34.90;;;;;;5075289;28;20028;-77
2022/10/22 12:58:17;;;;;;;3.95;1.00;;;26.30;33.90;;;;;;5075048;28;20545;-77
2022/10/22 13:00:44;;;;;;;3.58;0.90;;;26.10;34.80;;;;;;5075102;28;20032;-78
2022/10/22 13:03:26;;;;;;;3.70;0.80;;;26.60;34.30;;;;;;5074882;28;20028;-78
2022/10/22 13:05:51;;;;;;;1.33;0.60;;;27.20;33.70;;;;;;5075074;28;20107;-78